This is the latest recevied weather packets stored in our database for station/object N5XJB. If no packets are shown the sender has not sent any weather packets the latest 10 day(s).
| Time | Temp. | Humidity | Pressure | Rain* | Wind** | Luminosity | Snow |
|---|---|---|---|---|---|---|---|
| 1777580489 | 26.67° C | 75% | 1011.4 hPa | 0 mm | - | 283 W/m² | - |
| 1777580183 | 27.22° C | 75% | 1011 hPa | 0 mm | - | 454 W/m² | - |
| 1777579881 | 27.22° C | 74% | 1011.4 hPa | 0 mm | - | 681 W/m² | - |
| 1777579580 | 27.22° C | 73% | 1011.4 hPa | 0 mm | - | 632 W/m² | - |
| 1777579274 | 27.22° C | 74% | 1011.4 hPa | 0 mm | - | 728 W/m² | - |
| 1777578970 | 26.67° C | 76% | 1011.4 hPa | 0 mm | - | 663 W/m² | - |
| 1777578666 | 26.67° C | 76% | 1011 hPa | 0 mm | - | 579 W/m² | - |
| 1777578364 | 26.11° C | 77% | 1010.7 hPa | 0 mm | - | 541 W/m² | - |
| 1777578061 | 26.67° C | 78% | 1011 hPa | 0 mm | - | 377 W/m² | - |
| 1777577755 | 27.22° C | 77% | 1010.7 hPa | 0 mm | - | 243 W/m² | - |
| 1777577453 | 28.33° C | 73% | 1010.7 hPa | 0 mm | - | 365 W/m² | - |
| 1777577150 | 28.89° C | 73% | 1011 hPa | 0 mm | - | 670 W/m² | - |
| 1777576846 | 28.89° C | 71% | 1010.7 hPa | 0 mm | - | 390 W/m² | - |
| 1777576545 | 30° C | 69% | 1010.7 hPa | 0 mm | - | 949 W/m² | - |
| 1777576242 | 29.44° C | 68% | 1011 hPa | 0 mm | - | 935 W/m² | - |
| 1777575938 | 29.44° C | 70% | 1011 hPa | 0 mm | - | 920 W/m² | - |
| 1777575634 | 28.89° C | 70% | 1011 hPa | 0 mm | - | 825 W/m² | - |
| 1777575330 | 28.89° C | 73% | 1011 hPa | 0 mm | - | 452 W/m² | - |
| 1777575026 | 27.78° C | 76% | 1011 hPa | 0 mm | - | 829 W/m² | - |
| 1777574722 | 28.33° C | 75% | 1011.4 hPa | 0 mm | - | 384 W/m² | - |
| 1777574420 | 28.33° C | 75% | 1011.4 hPa | 0 mm | - | 435 W/m² | - |
| 1777574115 | 27.78° C | 77% | 1011.4 hPa | 0 mm | - | 558 W/m² | - |
| 1777573811 | 28.33° C | 74% | 1011.4 hPa | 0 mm | - | 355 W/m² | - |
| 1777573506 | 28.33° C | 75% | 1011.4 hPa | 0 mm | - | 238 W/m² | - |
| 1777573203 | 28.89° C | 75% | 1011.4 hPa | 0 mm | - | 313 W/m² | - |
* Rain latest hour (hover to see other rain measurements)
** Current wind speed in m/s (hover to see current wind gust speed)